Friday, November 17, 2017, 4:09 PM EST
Back to Local

KDDH, Bennington Morse State Airport

Location: Bennington, VT, United States Lat: 42.883
Local Time: 4:09 PM EST (21:09 GMT) Lon: -73.25
Time Zone: US/Eastern Elev: 826 ft

Show me the last for .
Show Decoded

2017-11-17 15:54 METAR KDDH 172054Z AUTO 24012G19KT 10SM CLR 02/M08 A3003 RMK AO2 SLP175
                 T00221078 53016 =
2017-11-17 14:54 METAR KDDH 171954Z AUTO 29007KT 10SM CLR 04/M09 A3000 RMK AO2 SLP164 T00391094 =
2017-11-17 13:54 METAR KDDH 171854Z AUTO 29012G19KT 10SM CLR 03/M08 A2998 RMK AO2 SLP159
                 T00331078 =
2017-11-17 12:54 METAR KDDH 171754Z AUTO 29012G18KT 10SM CLR 04/M08 A2998 RMK AO2 SLP158
                 T00391078 10039 20000 56016 =
2017-11-17 11:54 METAR KDDH 171654Z AUTO 33009G18KT 10SM CLR 02/M06 A2998 RMK AO2 SLP159
                 T00221061 =
2017-11-17 11:02 METAR KDDH 171602Z AUTO 32010G19KT 10SM BKN030 02/M06 A3001 RMK AO2 T00171056 =
2017-11-17 10:54 METAR KDDH 171554Z AUTO 31009G17KT 10SM BKN028 02/M06 A3001 RMK AO2 SLP169
                 T00171056 =
2017-11-17 09:54 METAR KDDH 171454Z AUTO 30010KT 10SM OVC026 01/M06 A3003 RMK AO2 SLP174
                 T00061056 51022 =
2017-11-17 08:54 METAR KDDH 171354Z AUTO 30011G16KT 10SM OVC027 01/M06 A3001 RMK AO2 SLP169
                 T00061056 =
2017-11-17 07:54 METAR KDDH 171254Z AUTO 30008G18KT 10SM OVC027 01/M06 A3000 RMK AO2 SLP163
                 T00061056 =
2017-11-17 07:22 METAR KDDH 171222Z AUTO 32007KT 10SM OVC029 01/M06 A2998 RMK AO2 T00061056 =
2017-11-17 07:11 METAR KDDH 171211Z AUTO 33009KT 10SM OVC030 01/M06 A2997 RMK AO2 T00061056 =
2017-11-17 06:54 METAR KDDH 171154Z AUTO 32007KT 280V350 10SM OVC028 01/M05 A2996 RMK AO2 SLP152
                 70018 T00061050 10039 20006 53031 =
2017-11-17 06:01 METAR KDDH 171101Z AUTO 29014G22KT 10SM OVC029 01/M06 A2993 RMK AO2 T00111056 =
2017-11-17 05:54 METAR KDDH 171054Z AUTO 29013G20KT 10SM OVC030 01/M05 A2993 RMK AO2 SLP141
                 T00111050 =
2017-11-17 04:54 METAR KDDH 170954Z AUTO 28015G22KT 10SM OVC030 02/M05 A2989 RMK AO2 SLP128
                 T00171050 =
2017-11-17 04:47 METAR KDDH 170947Z AUTO 28010G20KT 10SM OVC030 02/M04 A2989 RMK AO2 T00171044 =
2017-11-17 04:36 METAR KDDH 170936Z AUTO 30011G20KT 10SM OVC029 02/M04 A2989 RMK AO2 T00171044 =
2017-11-17 03:54 METAR KDDH 170854Z AUTO 30009G17KT 10SM OVC031 02/M04 A2987 RMK AO2 SLP118
                 T00221039 51022 =
2017-11-17 02:54 METAR KDDH 170754Z AUTO 29012G19KT 10SM OVC033 02/M03 A2985 RMK AO2 SLP111
                 T00221033 =
2017-11-17 01:54 METAR KDDH 170654Z AUTO 28009KT 10SM BKN036 OVC049 03/M03 A2982 RMK AO2 SLP103
                 T00331028 =
2017-11-17 00:54 METAR KDDH 170554Z AUTO 27012G16KT 10SM OVC037 04/M02 A2980 RMK AO2 SLP094
                 T00391022 10061 20039 53010 =
2017-11-16 23:54 METAR KDDH 170454Z AUTO 26009G15KT 10SM BKN035 OVC046 04/M01 A2979 RMK AO2
                 SLP091 T00391011 400940039 =
2017-11-16 22:54 METAR KDDH 170354Z AUTO 26009G16KT 10SM BKN050 OVC070 04/M01 A2978 RMK AO2
                 SLP086 T00391006 =
2017-11-16 21:54 METAR KDDH 170254Z AUTO 26008G18KT 10SM FEW039 OVC060 04/00 A2977 RMK AO2 SLP084
                 T00440000 53008 =
2017-11-16 20:54 METAR KDDH 170154Z AUTO 26007KT 10SM SCT024 SCT047 OVC055 05/01 A2976 RMK AO2
                 SLP082 T00500006 =
2017-11-16 20:29 METAR KDDH 170129Z AUTO 26007KT 10SM BKN025 OVC029 06/01 A2976 RMK AO2 T00560006
                 =
2017-11-16 19:54 METAR KDDH 170054Z AUTO VRB04KT 10SM OVC032 06/01 A2975 RMK AO2 SLP076 T00560011
                 =
2017-11-16 18:54 METAR KDDH 162354Z AUTO 26006KT 10SM OVC048 06/02 A2974 RMK AO2 SLP076 60011
                 T00610017 10094 20056 51019 =
2017-11-16 17:54 METAR KDDH 162254Z AUTO 23003KT 10SM OVC055 06/02 A2974 RMK AO2 SLP074 T00560022
                 =
2017-11-16 16:54 METAR KDDH 162154Z AUTO 23005KT 10SM SCT032 OVC050 07/03 A2972 RMK AO2 RAB09E33
                 SLP067 P0006 T00670033 =

Support USWX by starting your Amazon purchase here.